sensor_id;sensor_type;location;lat;lon;timestamp;P1;durP1;ratioP1;P2;durP2;ratioP2
43160;SDS011;40968;52.342;5.528;2023-03-26T00:00:57;18.40;;;3.75;;
43160;SDS011;40968;52.342;5.528;2023-03-26T00:03:24;20.88;;;4.32;;
43160;SDS011;40968;52.342;5.528;2023-03-26T00:06:01;11.70;;;3.30;;
43160;SDS011;40968;52.342;5.528;2023-03-26T00:08:28;14.52;;;4.03;;
43160;SDS011;40968;52.342;5.528;2023-03-26T00:10:55;22.45;;;3.60;;
43160;SDS011;40968;52.342;5.528;2023-03-26T00:13:21;16.35;;;3.20;;
43160;SDS011;40968;52.342;5.528;2023-03-26T00:15:48;15.13;;;3.60;;
43160;SDS011;40968;52.342;5.528;2023-03-26T00:18:15;29.63;;;3.83;;
43160;SDS011;40968;52.342;5.528;2023-03-26T00:20:44;15.63;;;3.30;;
43160;SDS011;40968;52.342;5.528;2023-03-26T00:23:12;16.02;;;3.50;;
43160;SDS011;40968;52.342;5.528;2023-03-26T00:25:38;9.25;;;2.75;;
43160;SDS011;40968;52.342;5.528;2023-03-26T00:28:07;16.08;;;3.03;;
43160;SDS011;40968;52.342;5.528;2023-03-26T00:30:34;13.00;;;2.90;;
43160;SDS011;40968;52.342;5.528;2023-03-26T00:33:01;20.33;;;3.60;;
43160;SDS011;40968;52.342;5.528;2023-03-26T00:35:28;24.10;;;3.78;;
43160;SDS011;40968;52.342;5.528;2023-03-26T00:37:54;10.50;;;3.17;;
43160;SDS011;40968;52.342;5.528;2023-03-26T00:40:23;12.57;;;3.33;;
43160;SDS011;40968;52.342;5.528;2023-03-26T00:42:50;21.33;;;3.10;;
43160;SDS011;40968;52.342;5.528;2023-03-26T00:45:17;25.85;;;3.38;;
43160;SDS011;40968;52.342;5.528;2023-03-26T00:47:45;14.13;;;4.20;;
43160;SDS011;40968;52.342;5.528;2023-03-26T00:50:12;11.88;;;3.50;;
43160;SDS011;40968;52.342;5.528;2023-03-26T00:52:40;16.08;;;3.67;;
43160;SDS011;40968;52.342;5.528;2023-03-26T00:55:07;15.25;;;3.60;;
43160;SDS011;40968;52.342;5.528;2023-03-26T00:57:36;14.68;;;3.63;;
43160;SDS011;40968;52.342;5.528;2023-03-26T01:00:05;23.05;;;3.58;;
43160;SDS011;40968;52.342;5.528;2023-03-26T01:02:40;20.13;;;3.75;;
43160;SDS011;40968;52.342;5.528;2023-03-26T01:05:37;16.73;;;3.97;;
43160;SDS011;40968;52.342;5.528;2023-03-26T01:08:11;17.83;;;3.92;;
43160;SDS011;40968;52.342;5.528;2023-03-26T01:10:43;16.95;;;3.63;;
43160;SDS011;40968;52.342;5.528;2023-03-26T01:13:18;12.60;;;3.45;;
43160;SDS011;40968;52.342;5.528;2023-03-26T01:15:46;11.50;;;3.40;;
43160;SDS011;40968;52.342;5.528;2023-03-26T01:18:16;18.42;;;3.15;;
43160;SDS011;40968;52.342;5.528;2023-03-26T01:20:44;13.43;;;3.70;;
43160;SDS011;40968;52.342;5.528;2023-03-26T01:23:14;12.65;;;3.70;;
43160;SDS011;40968;52.342;5.528;2023-03-26T01:25:47;19.58;;;3.90;;
43160;SDS011;40968;52.342;5.528;2023-03-26T01:28:21;14.40;;;3.85;;
43160;SDS011;40968;52.342;5.528;2023-03-26T01:30:51;12.60;;;3.97;;
43160;SDS011;40968;52.342;5.528;2023-03-26T01:33:28;19.30;;;5.15;;
43160;SDS011;40968;52.342;5.528;2023-03-26T01:36:02;15.90;;;3.42;;
43160;SDS011;40968;52.342;5.528;2023-03-26T01:38:36;14.00;;;3.75;;
43160;SDS011;40968;52.342;5.528;2023-03-26T01:41:14;17.70;;;5.63;;
43160;SDS011;40968;52.342;5.528;2023-03-26T01:43:46;11.82;;;3.90;;
43160;SDS011;40968;52.342;5.528;2023-03-26T01:46:18;20.33;;;6.30;;
43160;SDS011;40968;52.342;5.528;2023-03-26T01:48:47;12.02;;;4.22;;
43160;SDS011;40968;52.342;5.528;2023-03-26T01:51:24;17.90;;;5.65;;
43160;SDS011;40968;52.342;5.528;2023-03-26T01:53:52;15.70;;;4.45;;
43160;SDS011;40968;52.342;5.528;2023-03-26T01:56:22;17.63;;;4.68;;
43160;SDS011;40968;52.342;5.528;2023-03-26T01:59:05;16.92;;;4.22;;
43160;SDS011;40968;52.342;5.528;2023-03-26T02:01:42;16.20;;;5.03;;
43160;SDS011;40968;52.342;5.528;2023-03-26T02:04:21;23.45;;;5.13;;
43160;SDS011;40968;52.342;5.528;2023-03-26T02:06:52;20.98;;;4.60;;
43160;SDS011;40968;52.342;5.528;2023-03-26T02:09:27;16.65;;;4.25;;
43160;SDS011;40968;52.342;5.528;2023-03-26T02:11:57;22.15;;;5.40;;
43160;SDS011;40968;52.342;5.528;2023-03-26T02:16:54;16.85;;;4.80;;
43160;SDS011;40968;52.342;5.528;2023-03-26T02:19:22;14.38;;;4.30;;
43160;SDS011;40968;52.342;5.528;2023-03-26T02:21:49;14.40;;;4.95;;
43160;SDS011;40968;52.342;5.528;2023-03-26T02:24:16;21.67;;;4.72;;
43160;SDS011;40968;52.342;5.528;2023-03-26T02:26:43;16.35;;;5.38;;
43160;SDS011;40968;52.342;5.528;2023-03-26T02:29:11;24.80;;;5.90;;
43160;SDS011;40968;52.342;5.528;2023-03-26T02:31:43;29.17;;;6.22;;
43160;SDS011;40968;52.342;5.528;2023-03-26T02:34:10;22.73;;;6.70;;
43160;SDS011;40968;52.342;5.528;2023-03-26T02:36:37;22.67;;;5.75;;
43160;SDS011;40968;52.342;5.528;2023-03-26T02:39:06;23.40;;;6.65;;
43160;SDS011;40968;52.342;5.528;2023-03-26T02:41:34;17.88;;;5.53;;
43160;SDS011;40968;52.342;5.528;2023-03-26T02:44:01;27.73;;;6.72;;
43160;SDS011;40968;52.342;5.528;2023-03-26T02:46:29;41.05;;;6.90;;
43160;SDS011;40968;52.342;5.528;2023-03-26T02:48:56;22.77;;;6.25;;
43160;SDS011;40968;52.342;5.528;2023-03-26T02:51:23;23.83;;;6.95;;
43160;SDS011;40968;52.342;5.528;2023-03-26T02:53:49;22.83;;;6.60;;
43160;SDS011;40968;52.342;5.528;2023-03-26T02:56:17;20.38;;;6.63;;
43160;SDS011;40968;52.342;5.528;2023-03-26T02:58:44;22.77;;;5.82;;
43160;SDS011;40968;52.342;5.528;2023-03-26T03:01:12;20.65;;;7.07;;
43160;SDS011;40968;52.342;5.528;2023-03-26T03:03:43;28.35;;;8.27;;
43160;SDS011;40968;52.342;5.528;2023-03-26T03:06:12;27.53;;;8.13;;
43160;SDS011;40968;52.342;5.528;2023-03-26T03:08:41;24.38;;;7.25;;
43160;SDS011;40968;52.342;5.528;2023-03-26T03:11:10;25.65;;;8.10;;
43160;SDS011;40968;52.342;5.528;2023-03-26T03:13:39;31.58;;;8.75;;
43160;SDS011;40968;52.342;5.528;2023-03-26T03:16:06;25.63;;;8.63;;
43160;SDS011;40968;52.342;5.528;2023-03-26T03:18:33;32.92;;;9.23;;
43160;SDS011;40968;52.342;5.528;2023-03-26T03:21:02;33.20;;;10.50;;
43160;SDS011;40968;52.342;5.528;2023-03-26T03:23:29;35.28;;;10.27;;
43160;SDS011;40968;52.342;5.528;2023-03-26T03:25:56;38.60;;;11.48;;
43160;SDS011;40968;52.342;5.528;2023-03-26T03:28:23;30.42;;;8.98;;
43160;SDS011;40968;52.342;5.528;2023-03-26T03:30:50;28.30;;;9.38;;
43160;SDS011;40968;52.342;5.528;2023-03-26T03:33:17;28.95;;;9.93;;
43160;SDS011;40968;52.342;5.528;2023-03-26T03:35:44;43.50;;;10.48;;
43160;SDS011;40968;52.342;5.528;2023-03-26T03:38:13;43.85;;;10.82;;
43160;SDS011;40968;52.342;5.528;2023-03-26T03:40:40;30.80;;;9.85;;
43160;SDS011;40968;52.342;5.528;2023-03-26T03:43:06;38.17;;;11.90;;
43160;SDS011;40968;52.342;5.528;2023-03-26T03:45:33;30.08;;;9.63;;
43160;SDS011;40968;52.342;5.528;2023-03-26T03:48:00;39.72;;;10.60;;
43160;SDS011;40968;52.342;5.528;2023-03-26T03:50:27;33.72;;;8.45;;
43160;SDS011;40968;52.342;5.528;2023-03-26T03:52:53;25.98;;;8.15;;
43160;SDS011;40968;52.342;5.528;2023-03-26T03:55:24;34.70;;;8.93;;
43160;SDS011;40968;52.342;5.528;2023-03-26T03:57:51;36.33;;;11.32;;
43160;SDS011;40968;52.342;5.528;2023-03-26T04:00:18;40.15;;;11.05;;
43160;SDS011;40968;52.342;5.528;2023-03-26T04:02:46;41.88;;;10.93;;
43160;SDS011;40968;52.342;5.528;2023-03-26T04:05:12;31.05;;;9.05;;
43160;SDS011;40968;52.342;5.528;2023-03-26T04:07:39;34.72;;;9.93;;
43160;SDS011;40968;52.342;5.528;2023-03-26T04:10:06;43.55;;;11.98;;
43160;SDS011;40968;52.342;5.528;2023-03-26T04:12:35;35.20;;;9.98;;
43160;SDS011;40968;52.342;5.528;2023-03-26T04:15:02;35.20;;;11.10;;
43160;SDS011;40968;52.342;5.528;2023-03-26T04:17:29;35.50;;;10.93;;
43160;SDS011;40968;52.342;5.528;2023-03-26T04:19:56;46.15;;;11.75;;
43160;SDS011;40968;52.342;5.528;2023-03-26T04:22:29;42.10;;;11.50;;
43160;SDS011;40968;52.342;5.528;2023-03-26T04:24:59;45.78;;;10.77;;
43160;SDS011;40968;52.342;5.528;2023-03-26T04:27:27;45.70;;;9.23;;
43160;SDS011;40968;52.342;5.528;2023-03-26T04:29:58;33.85;;;10.85;;
43160;SDS011;40968;52.342;5.528;2023-03-26T04:32:27;47.25;;;12.50;;
43160;SDS011;40968;52.342;5.528;2023-03-26T04:34:58;65.68;;;12.63;;
43160;SDS011;40968;52.342;5.528;2023-03-26T04:37:28;40.40;;;11.52;;
43160;SDS011;40968;52.342;5.528;2023-03-26T04:39:58;51.45;;;11.52;;
43160;SDS011;40968;52.342;5.528;2023-03-26T04:42:25;57.50;;;12.18;;
43160;SDS011;40968;52.342;5.528;2023-03-26T04:44:52;34.92;;;11.77;;
43160;SDS011;40968;52.342;5.528;2023-03-26T04:47:20;50.90;;;13.02;;
43160;SDS011;40968;52.342;5.528;2023-03-26T04:49:47;53.00;;;12.20;;
43160;SDS011;40968;52.342;5.528;2023-03-26T04:52:14;50.40;;;12.95;;
43160;SDS011;40968;52.342;5.528;2023-03-26T04:54:41;55.33;;;12.65;;
43160;SDS011;40968;52.342;5.528;2023-03-26T04:57:11;64.60;;;13.95;;
43160;SDS011;40968;52.342;5.528;2023-03-26T04:59:40;48.72;;;11.35;;
43160;SDS011;40968;52.342;5.528;2023-03-26T05:02:09;54.25;;;12.60;;
43160;SDS011;40968;52.342;5.528;2023-03-26T05:04:39;49.25;;;10.82;;
43160;SDS011;40968;52.342;5.528;2023-03-26T05:07:08;61.60;;;13.40;;
43160;SDS011;40968;52.342;5.528;2023-03-26T05:09:36;50.08;;;13.88;;
43160;SDS011;40968;52.342;5.528;2023-03-26T05:12:02;53.67;;;13.23;;
43160;SDS011;40968;52.342;5.528;2023-03-26T05:14:29;62.72;;;11.77;;
43160;SDS011;40968;52.342;5.528;2023-03-26T05:16:56;64.93;;;15.02;;
43160;SDS011;40968;52.342;5.528;2023-03-26T05:19:22;66.60;;;14.35;;
43160;SDS011;40968;52.342;5.528;2023-03-26T05:21:50;63.55;;;12.65;;
43160;SDS011;40968;52.342;5.528;2023-03-26T05:24:17;57.08;;;11.85;;
43160;SDS011;40968;52.342;5.528;2023-03-26T05:26:44;70.35;;;13.30;;
43160;SDS011;40968;52.342;5.528;2023-03-26T05:29:11;62.58;;;11.95;;
43160;SDS011;40968;52.342;5.528;2023-03-26T05:31:38;61.20;;;13.00;;
43160;SDS011;40968;52.342;5.528;2023-03-26T05:34:05;67.03;;;15.25;;
43160;SDS011;40968;52.342;5.528;2023-03-26T05:36:31;51.42;;;14.07;;
43160;SDS011;40968;52.342;5.528;2023-03-26T05:38:59;39.10;;;11.18;;
43160;SDS011;40968;52.342;5.528;2023-03-26T05:41:27;47.17;;;13.63;;
43160;SDS011;40968;52.342;5.528;2023-03-26T05:43:54;57.08;;;13.82;;
43160;SDS011;40968;52.342;5.528;2023-03-26T05:46:20;53.80;;;13.80;;
43160;SDS011;40968;52.342;5.528;2023-03-26T05:48:47;56.35;;;14.25;;
43160;SDS011;40968;52.342;5.528;2023-03-26T05:51:14;52.83;;;13.32;;
43160;SDS011;40968;52.342;5.528;2023-03-26T05:53:41;66.47;;;15.25;;
43160;SDS011;40968;52.342;5.528;2023-03-26T05:56:09;55.13;;;14.93;;
43160;SDS011;40968;52.342;5.528;2023-03-26T05:58:36;62.67;;;15.50;;
43160;SDS011;40968;52.342;5.528;2023-03-26T06:01:03;82.32;;;16.90;;
43160;SDS011;40968;52.342;5.528;2023-03-26T06:03:32;97.65;;;20.42;;
43160;SDS011;40968;52.342;5.528;2023-03-26T06:06:00;88.28;;;18.70;;
43160;SDS011;40968;52.342;5.528;2023-03-26T06:08:28;92.07;;;18.85;;
43160;SDS011;40968;52.342;5.528;2023-03-26T06:10:59;83.10;;;18.80;;
43160;SDS011;40968;52.342;5.528;2023-03-26T06:13:29;100.40;;;19.50;;
43160;SDS011;40968;52.342;5.528;2023-03-26T06:15:56;63.47;;;15.77;;
43160;SDS011;40968;52.342;5.528;2023-03-26T06:18:22;62.08;;;16.40;;
43160;SDS011;40968;52.342;5.528;2023-03-26T06:20:49;72.80;;;17.60;;
43160;SDS011;40968;52.342;5.528;2023-03-26T06:23:16;57.20;;;16.48;;
43160;SDS011;40968;52.342;5.528;2023-03-26T06:25:43;58.10;;;16.38;;
43160;SDS011;40968;52.342;5.528;2023-03-26T06:28:10;61.70;;;17.08;;
43160;SDS011;40968;52.342;5.528;2023-03-26T06:30:39;64.32;;;15.95;;
43160;SDS011;40968;52.342;5.528;2023-03-26T06:33:05;37.42;;;14.02;;
43160;SDS011;40968;52.342;5.528;2023-03-26T06:35:32;57.33;;;14.88;;
43160;SDS011;40968;52.342;5.528;2023-03-26T06:37:59;50.55;;;14.13;;
43160;SDS011;40968;52.342;5.528;2023-03-26T06:40:26;56.78;;;14.60;;
43160;SDS011;40968;52.342;5.528;2023-03-26T06:42:53;53.60;;;14.77;;
43160;SDS011;40968;52.342;5.528;2023-03-26T06:45:20;50.35;;;14.82;;
43160;SDS011;40968;52.342;5.528;2023-03-26T06:47:48;45.25;;;14.45;;
43160;SDS011;40968;52.342;5.528;2023-03-26T06:50:14;45.00;;;14.23;;
43160;SDS011;40968;52.342;5.528;2023-03-26T06:52:41;42.13;;;14.25;;
43160;SDS011;40968;52.342;5.528;2023-03-26T06:55:07;47.95;;;13.68;;
43160;SDS011;40968;52.342;5.528;2023-03-26T06:57:34;40.13;;;12.60;;
43160;SDS011;40968;52.342;5.528;2023-03-26T07:00:01;32.60;;;10.90;;
43160;SDS011;40968;52.342;5.528;2023-03-26T07:02:29;37.28;;;12.73;;
43160;SDS011;40968;52.342;5.528;2023-03-26T07:04:57;34.28;;;10.90;;
43160;SDS011;40968;52.342;5.528;2023-03-26T07:07:24;40.83;;;11.40;;
43160;SDS011;40968;52.342;5.528;2023-03-26T07:09:51;40.17;;;11.38;;
43160;SDS011;40968;52.342;5.528;2023-03-26T07:12:17;43.80;;;10.95;;
43160;SDS011;40968;52.342;5.528;2023-03-26T07:14:44;39.55;;;10.63;;
43160;SDS011;40968;52.342;5.528;2023-03-26T07:17:10;34.67;;;9.57;;
43160;SDS011;40968;52.342;5.528;2023-03-26T07:19:37;43.50;;;8.65;;
43160;SDS011;40968;52.342;5.528;2023-03-26T07:22:05;31.52;;;8.38;;
43160;SDS011;40968;52.342;5.528;2023-03-26T07:24:32;30.30;;;7.85;;
43160;SDS011;40968;52.342;5.528;2023-03-26T07:27:00;21.60;;;6.78;;
43160;SDS011;40968;52.342;5.528;2023-03-26T07:29:32;26.52;;;7.68;;
43160;SDS011;40968;52.342;5.528;2023-03-26T07:32:06;27.30;;;6.93;;
43160;SDS011;40968;52.342;5.528;2023-03-26T07:34:45;34.25;;;8.43;;
43160;SDS011;40968;52.342;5.528;2023-03-26T07:37:29;25.42;;;6.10;;
43160;SDS011;40968;52.342;5.528;2023-03-26T07:40:04;31.65;;;7.35;;
43160;SDS011;40968;52.342;5.528;2023-03-26T07:42:42;24.23;;;6.65;;
43160;SDS011;40968;52.342;5.528;2023-03-26T07:45:19;26.95;;;7.93;;
43160;SDS011;40968;52.342;5.528;2023-03-26T07:47:51;20.92;;;6.32;;
43160;SDS011;40968;52.342;5.528;2023-03-26T07:50:21;22.65;;;5.93;;
43160;SDS011;40968;52.342;5.528;2023-03-26T07:52:50;20.05;;;6.25;;
43160;SDS011;40968;52.342;5.528;2023-03-26T07:55:18;35.17;;;6.18;;
43160;SDS011;40968;52.342;5.528;2023-03-26T07:57:48;23.33;;;6.13;;
43160;SDS011;40968;52.342;5.528;2023-03-26T08:00:25;27.42;;;5.97;;
43160;SDS011;40968;52.342;5.528;2023-03-26T08:03:02;20.05;;;5.57;;
43160;SDS011;40968;52.342;5.528;2023-03-26T08:05:40;27.58;;;5.70;;
43160;SDS011;40968;52.342;5.528;2023-03-26T08:08:14;18.20;;;5.70;;
43160;SDS011;40968;52.342;5.528;2023-03-26T08:10:53;23.20;;;5.32;;
43160;SDS011;40968;52.342;5.528;2023-03-26T08:13:34;35.47;;;4.78;;
43160;SDS011;40968;52.342;5.528;2023-03-26T08:16:07;16.83;;;5.18;;
43160;SDS011;40968;52.342;5.528;2023-03-26T08:18:41;20.98;;;5.40;;
43160;SDS011;40968;52.342;5.528;2023-03-26T08:21:14;19.25;;;5.15;;
43160;SDS011;40968;52.342;5.528;2023-03-26T08:23:49;28.42;;;6.07;;
43160;SDS011;40968;52.342;5.528;2023-03-26T08:26:25;18.45;;;5.47;;
43160;SDS011;40968;52.342;5.528;2023-03-26T08:29:00;24.23;;;6.78;;
43160;SDS011;40968;52.342;5.528;2023-03-26T08:31:35;20.95;;;5.65;;
43160;SDS011;40968;52.342;5.528;2023-03-26T08:34:04;26.23;;;5.43;;
43160;SDS011;40968;52.342;5.528;2023-03-26T08:36:31;26.33;;;5.63;;
43160;SDS011;40968;52.342;5.528;2023-03-26T08:38:58;22.25;;;5.80;;
43160;SDS011;40968;52.342;5.528;2023-03-26T08:44:34;20.35;;;5.97;;
43160;SDS011;40968;52.342;5.528;2023-03-26T08:47:33;32.28;;;6.50;;
43160;SDS011;40968;52.342;5.528;2023-03-26T08:50:35;28.95;;;6.53;;
43160;SDS011;40968;52.342;5.528;2023-03-26T08:56:35;21.73;;;5.07;;
43160;SDS011;40968;52.342;5.528;2023-03-26T08:59:13;24.35;;;5.35;;
43160;SDS011;40968;52.342;5.528;2023-03-26T09:08:30;22.25;;;5.75;;
43160;SDS011;40968;52.342;5.528;2023-03-26T09:11:35;25.20;;;5.43;;
43160;SDS011;40968;52.342;5.528;2023-03-26T09:14:23;28.60;;;5.43;;
43160;SDS011;40968;52.342;5.528;2023-03-26T09:32:01;24.17;;;4.93;;
43160;SDS011;40968;52.342;5.528;2023-03-26T09:34:47;25.80;;;5.68;;
43160;SDS011;40968;52.342;5.528;2023-03-26T09:37:31;19.52;;;4.85;;
43160;SDS011;40968;52.342;5.528;2023-03-26T09:40:13;18.60;;;4.90;;
43160;SDS011;40968;52.342;5.528;2023-03-26T09:42:42;28.65;;;4.88;;
43160;SDS011;40968;52.342;5.528;2023-03-26T09:45:32;27.02;;;5.32;;
43160;SDS011;40968;52.342;5.528;2023-03-26T09:48:27;24.52;;;5.47;;
43160;SDS011;40968;52.342;5.528;2023-03-26T09:51:10;24.52;;;5.20;;
43160;SDS011;40968;52.342;5.528;2023-03-26T09:54:04;25.23;;;4.75;;
43160;SDS011;40968;52.342;5.528;2023-03-26T09:56:46;26.80;;;5.68;;
43160;SDS011;40968;52.342;5.528;2023-03-26T09:59:32;28.52;;;5.22;;
43160;SDS011;40968;52.342;5.528;2023-03-26T10:02:21;20.02;;;4.40;;
43160;SDS011;40968;52.342;5.528;2023-03-26T10:10:56;20.65;;;4.75;;
43160;SDS011;40968;52.342;5.528;2023-03-26T10:13:31;25.10;;;4.97;;
43160;SDS011;40968;52.342;5.528;2023-03-26T10:16:06;30.05;;;6.28;;
43160;SDS011;40968;52.342;5.528;2023-03-26T10:18:44;28.15;;;5.60;;
43160;SDS011;40968;52.342;5.528;2023-03-26T10:21:20;21.25;;;4.97;;
43160;SDS011;40968;52.342;5.528;2023-03-26T10:23:59;25.80;;;4.72;;
43160;SDS011;40968;52.342;5.528;2023-03-26T10:26:39;20.23;;;5.63;;
43160;SDS011;40968;52.342;5.528;2023-03-26T10:29:20;29.02;;;4.93;;
43160;SDS011;40968;52.342;5.528;2023-03-26T10:31:56;22.75;;;5.05;;
43160;SDS011;40968;52.342;5.528;2023-03-26T10:34:45;21.25;;;4.85;;
43160;SDS011;40968;52.342;5.528;2023-03-26T10:37:24;23.83;;;5.05;;
43160;SDS011;40968;52.342;5.528;2023-03-26T10:40:08;23.90;;;5.20;;
43160;SDS011;40968;52.342;5.528;2023-03-26T10:48:52;24.58;;;5.10;;
43160;SDS011;40968;52.342;5.528;2023-03-26T10:51:39;21.02;;;4.00;;
43160;SDS011;40968;52.342;5.528;2023-03-26T10:54:17;17.88;;;4.78;;
43160;SDS011;40968;52.342;5.528;2023-03-26T10:56:51;27.45;;;4.88;;
43160;SDS011;40968;52.342;5.528;2023-03-26T10:59:20;25.42;;;4.45;;
43160;SDS011;40968;52.342;5.528;2023-03-26T11:01:48;22.48;;;4.40;;
43160;SDS011;40968;52.342;5.528;2023-03-26T11:04:29;18.73;;;4.15;;
43160;SDS011;40968;52.342;5.528;2023-03-26T11:07:08;21.63;;;4.45;;
43160;SDS011;40968;52.342;5.528;2023-03-26T11:09:45;13.48;;;4.40;;
43160;SDS011;40968;52.342;5.528;2023-03-26T11:12:19;34.72;;;6.03;;
43160;SDS011;40968;52.342;5.528;2023-03-26T11:14:52;29.55;;;5.43;;
43160;SDS011;40968;52.342;5.528;2023-03-26T11:17:32;18.40;;;4.63;;
43160;SDS011;40968;52.342;5.528;2023-03-26T11:20:06;15.48;;;4.15;;
43160;SDS011;40968;52.342;5.528;2023-03-26T11:22:42;23.90;;;4.28;;
43160;SDS011;40968;52.342;5.528;2023-03-26T11:25:26;26.23;;;4.28;;
43160;SDS011;40968;52.342;5.528;2023-03-26T11:28:16;21.20;;;3.85;;
43160;SDS011;40968;52.342;5.528;2023-03-26T11:30:53;24.63;;;3.85;;
43160;SDS011;40968;52.342;5.528;2023-03-26T11:33:27;20.15;;;4.18;;
43160;SDS011;40968;52.342;5.528;2023-03-26T11:35:59;14.20;;;4.05;;
43160;SDS011;40968;52.342;5.528;2023-03-26T11:38:29;25.87;;;3.97;;
43160;SDS011;40968;52.342;5.528;2023-03-26T11:41:03;21.25;;;3.78;;
43160;SDS011;40968;52.342;5.528;2023-03-26T11:43:37;16.00;;;3.22;;
43160;SDS011;40968;52.342;5.528;2023-03-26T11:46:05;23.05;;;5.15;;
43160;SDS011;40968;52.342;5.528;2023-03-26T11:48:38;18.38;;;4.03;;
43160;SDS011;40968;52.342;5.528;2023-03-26T11:53:37;18.45;;;3.50;;
43160;SDS011;40968;52.342;5.528;2023-03-26T11:56:07;21.88;;;3.25;;
43160;SDS011;40968;52.342;5.528;2023-03-26T11:58:41;23.50;;;3.90;;
43160;SDS011;40968;52.342;5.528;2023-03-26T12:01:12;17.45;;;3.67;;
43160;SDS011;40968;52.342;5.528;2023-03-26T12:03:41;12.27;;;3.15;;
43160;SDS011;40968;52.342;5.528;2023-03-26T12:06:11;16.00;;;4.38;;
43160;SDS011;40968;52.342;5.528;2023-03-26T12:08:49;23.50;;;3.53;;
43160;SDS011;40968;52.342;5.528;2023-03-26T12:11:18;24.85;;;4.15;;
43160;SDS011;40968;52.342;5.528;2023-03-26T12:13:51;25.17;;;3.85;;
43160;SDS011;40968;52.342;5.528;2023-03-26T12:16:20;14.75;;;3.83;;
43160;SDS011;40968;52.342;5.528;2023-03-26T12:18:56;15.90;;;3.15;;
43160;SDS011;40968;52.342;5.528;2023-03-26T12:21:24;21.02;;;3.42;;
43160;SDS011;40968;52.342;5.528;2023-03-26T12:23:55;20.67;;;3.72;;
43160;SDS011;40968;52.342;5.528;2023-03-26T12:26:30;22.27;;;3.50;;
43160;SDS011;40968;52.342;5.528;2023-03-26T12:29:05;19.95;;;3.63;;
43160;SDS011;40968;52.342;5.528;2023-03-26T12:34:17;15.32;;;4.40;;
43160;SDS011;40968;52.342;5.528;2023-03-26T12:36:47;11.63;;;2.80;;
43160;SDS011;40968;52.342;5.528;2023-03-26T12:39:21;15.75;;;3.13;;
43160;SDS011;40968;52.342;5.528;2023-03-26T12:41:57;12.05;;;3.20;;
43160;SDS011;40968;52.342;5.528;2023-03-26T12:44:25;26.75;;;4.38;;
43160;SDS011;40968;52.342;5.528;2023-03-26T12:47:06;18.30;;;3.28;;
43160;SDS011;40968;52.342;5.528;2023-03-26T12:49:35;9.82;;;3.10;;
43160;SDS011;40968;52.342;5.528;2023-03-26T12:52:08;11.43;;;3.08;;
43160;SDS011;40968;52.342;5.528;2023-03-26T12:54:48;19.13;;;3.50;;
43160;SDS011;40968;52.342;5.528;2023-03-26T12:57:22;9.45;;;3.40;;
43160;SDS011;40968;52.342;5.528;2023-03-26T13:03:00;11.20;;;2.70;;
43160;SDS011;40968;52.342;5.528;2023-03-26T13:05:52;19.58;;;5.25;;
43160;SDS011;40968;52.342;5.528;2023-03-26T13:08:32;16.45;;;3.70;;
43160;SDS011;40968;52.342;5.528;2023-03-26T13:11:13;17.13;;;3.70;;
43160;SDS011;40968;52.342;5.528;2023-03-26T13:13:53;14.77;;;3.53;;
43160;SDS011;40968;52.342;5.528;2023-03-26T13:16:28;11.75;;;3.08;;
43160;SDS011;40968;52.342;5.528;2023-03-26T13:19:02;23.17;;;3.85;;
43160;SDS011;40968;52.342;5.528;2023-03-26T13:21:36;12.52;;;2.80;;
43160;SDS011;40968;52.342;5.528;2023-03-26T13:24:11;11.25;;;2.60;;
43160;SDS011;40968;52.342;5.528;2023-03-26T13:26:53;15.32;;;2.78;;
43160;SDS011;40968;52.342;5.528;2023-03-26T13:29:30;14.10;;;2.40;;
43160;SDS011;40968;52.342;5.528;2023-03-26T13:32:03;16.42;;;3.03;;
43160;SDS011;40968;52.342;5.528;2023-03-26T13:34:38;17.70;;;2.63;;
43160;SDS011;40968;52.342;5.528;2023-03-26T13:37:21;13.63;;;2.83;;
43160;SDS011;40968;52.342;5.528;2023-03-26T13:39:56;13.45;;;2.75;;
43160;SDS011;40968;52.342;5.528;2023-03-26T13:42:34;16.15;;;2.75;;
43160;SDS011;40968;52.342;5.528;2023-03-26T13:45:13;15.77;;;2.70;;
43160;SDS011;40968;52.342;5.528;2023-03-26T13:47:56;17.52;;;3.08;;
43160;SDS011;40968;52.342;5.528;2023-03-26T13:50:24;11.35;;;3.08;;
43160;SDS011;40968;52.342;5.528;2023-03-26T13:52:54;12.43;;;2.85;;
43160;SDS011;40968;52.342;5.528;2023-03-26T13:55:24;13.50;;;2.92;;
43160;SDS011;40968;52.342;5.528;2023-03-26T13:57:57;13.93;;;2.47;;
43160;SDS011;40968;52.342;5.528;2023-03-26T14:00:31;12.38;;;3.03;;
43160;SDS011;40968;52.342;5.528;2023-03-26T14:03:14;43.50;;;3.33;;
43160;SDS011;40968;52.342;5.528;2023-03-26T14:05:48;7.63;;;2.20;;
43160;SDS011;40968;52.342;5.528;2023-03-26T14:08:18;13.50;;;2.43;;
43160;SDS011;40968;52.342;5.528;2023-03-26T14:10:52;9.05;;;2.20;;
43160;SDS011;40968;52.342;5.528;2023-03-26T14:13:25;13.98;;;3.00;;
43160;SDS011;40968;52.342;5.528;2023-03-26T14:16:00;13.20;;;2.85;;
43160;SDS011;40968;52.342;5.528;2023-03-26T14:18:32;9.25;;;2.60;;
43160;SDS011;40968;52.342;5.528;2023-03-26T14:21:15;22.95;;;2.90;;
43160;SDS011;40968;52.342;5.528;2023-03-26T14:24:07;13.50;;;2.58;;
43160;SDS011;40968;52.342;5.528;2023-03-26T14:26:49;12.25;;;3.25;;
43160;SDS011;40968;52.342;5.528;2023-03-26T14:29:30;8.52;;;2.58;;
43160;SDS011;40968;52.342;5.528;2023-03-26T14:32:20;13.73;;;3.10;;
43160;SDS011;40968;52.342;5.528;2023-03-26T14:35:02;15.55;;;2.78;;
43160;SDS011;40968;52.342;5.528;2023-03-26T14:37:41;10.43;;;2.67;;
43160;SDS011;40968;52.342;5.528;2023-03-26T14:40:27;13.60;;;2.83;;
43160;SDS011;40968;52.342;5.528;2023-03-26T14:43:02;14.02;;;2.88;;
43160;SDS011;40968;52.342;5.528;2023-03-26T14:45:45;13.45;;;2.55;;
43160;SDS011;40968;52.342;5.528;2023-03-26T14:48:40;16.38;;;3.40;;
43160;SDS011;40968;52.342;5.528;2023-03-26T14:51:22;9.68;;;2.78;;
43160;SDS011;40968;52.342;5.528;2023-03-26T14:53:59;19.83;;;4.07;;
43160;SDS011;40968;52.342;5.528;2023-03-26T14:56:41;6.97;;;2.40;;
43160;SDS011;40968;52.342;5.528;2023-03-26T14:59:21;12.35;;;2.28;;
43160;SDS011;40968;52.342;5.528;2023-03-26T15:02:24;10.77;;;2.50;;
43160;SDS011;40968;52.342;5.528;2023-03-26T15:08:46;13.55;;;2.75;;
43160;SDS011;40968;52.342;5.528;2023-03-26T15:11:38;8.60;;;2.72;;
43160;SDS011;40968;52.342;5.528;2023-03-26T15:17:34;12.55;;;3.22;;
43160;SDS011;40968;52.342;5.528;2023-03-26T15:26:55;15.27;;;3.03;;
43160;SDS011;40968;52.342;5.528;2023-03-26T15:29:51;9.85;;;2.97;;
43160;SDS011;40968;52.342;5.528;2023-03-26T15:32:50;13.13;;;3.00;;
43160;SDS011;40968;52.342;5.528;2023-03-26T15:35:42;11.93;;;2.38;;
43160;SDS011;40968;52.342;5.528;2023-03-26T15:38:40;12.43;;;2.88;;
43160;SDS011;40968;52.342;5.528;2023-03-26T15:41:32;10.85;;;2.88;;
43160;SDS011;40968;52.342;5.528;2023-03-26T15:44:10;11.93;;;2.35;;
43160;SDS011;40968;52.342;5.528;2023-03-26T15:46:50;17.10;;;3.00;;
43160;SDS011;40968;52.342;5.528;2023-03-26T15:49:23;11.75;;;2.92;;
43160;SDS011;40968;52.342;5.528;2023-03-26T15:52:03;10.02;;;2.20;;
43160;SDS011;40968;52.342;5.528;2023-03-26T15:54:44;16.40;;;2.72;;
43160;SDS011;40968;52.342;5.528;2023-03-26T15:57:20;14.75;;;2.83;;
43160;SDS011;40968;52.342;5.528;2023-03-26T16:00:02;14.80;;;2.70;;
43160;SDS011;40968;52.342;5.528;2023-03-26T16:02:49;15.23;;;2.70;;
43160;SDS011;40968;52.342;5.528;2023-03-26T16:08:31;10.38;;;2.88;;
43160;SDS011;40968;52.342;5.528;2023-03-26T16:11:05;21.10;;;3.10;;
43160;SDS011;40968;52.342;5.528;2023-03-26T16:13:38;11.13;;;2.17;;